sensor_id;sensor_type;location;lat;lon;timestamp;pressure;altitude;pressure_sealevel;temperature;humidity
78373;BME280;67656;52.074;4.758;2023-03-01T00:02:27;103295.94;;;-1.58;100.00
78373;BME280;67656;52.074;4.758;2023-03-01T00:07:28;103284.22;;;-1.51;100.00
78373;BME280;67656;52.074;4.758;2023-03-01T00:12:28;103277.03;;;-1.42;100.00
78373;BME280;67656;52.074;4.758;2023-03-01T00:17:28;103283.94;;;-1.56;100.00
78373;BME280;67656;52.074;4.758;2023-03-01T00:22:29;103282.00;;;-1.60;100.00
78373;BME280;67656;52.074;4.758;2023-03-01T00:27:29;103280.00;;;-1.64;100.00
78373;BME280;67656;52.074;4.758;2023-03-01T00:32:29;103282.00;;;-1.60;100.00
78373;BME280;67656;52.074;4.758;2023-03-01T00:37:30;103280.84;;;-1.78;100.00
78373;BME280;67656;52.074;4.758;2023-03-01T00:42:30;103275.09;;;-1.88;100.00
78373;BME280;67656;52.074;4.758;2023-03-01T00:47:30;103272.91;;;-1.95;100.00
78373;BME280;67656;52.074;4.758;2023-03-01T00:52:31;103269.75;;;-2.04;100.00
78373;BME280;67656;52.074;4.758;2023-03-01T00:57:31;103272.78;;;-1.83;100.00
78373;BME280;67656;52.074;4.758;2023-03-01T01:02:33;103264.75;;;-1.88;100.00
78373;BME280;67656;52.074;4.758;2023-03-01T01:07:34;103269.75;;;-2.04;100.00
78373;BME280;67656;52.074;4.758;2023-03-01T01:12:35;103269.75;;;-2.04;100.00
78373;BME280;67656;52.074;4.758;2023-03-01T01:17:35;103266.34;;;-1.90;100.00
78373;BME280;67656;52.074;4.758;2023-03-01T01:22:35;103262.97;;;-2.02;100.00
78373;BME280;67656;52.074;4.758;2023-03-01T01:27:36;103248.50;;;-2.27;100.00
78373;BME280;67656;52.074;4.758;2023-03-01T01:32:36;103249.88;;;-2.32;100.00
78373;BME280;67656;52.074;4.758;2023-03-01T01:37:37;103235.34;;;-2.30;100.00
78373;BME280;67656;52.074;4.758;2023-03-01T01:42:37;103233.56;;;-2.31;100.00
78373;BME280;67656;52.074;4.758;2023-03-01T01:47:37;103223.03;;;-2.34;100.00
78373;BME280;67656;52.074;4.758;2023-03-01T01:52:38;103211.69;;;-2.36;100.00
78373;BME280;67656;52.074;4.758;2023-03-01T01:57:44;103215.06;;;-2.24;100.00
78373;BME280;67656;52.074;4.758;2023-03-01T02:02:47;103211.06;;;-2.32;100.00
78373;BME280;67656;52.074;4.758;2023-03-01T02:07:49;103217.00;;;-2.06;100.00
78373;BME280;67656;52.074;4.758;2023-03-01T02:12:54;103209.63;;;-2.00;100.00
78373;BME280;67656;52.074;4.758;2023-03-01T02:17:56;103207.66;;;-2.18;100.00
78373;BME280;67656;52.074;4.758;2023-03-01T02:22:56;103205.50;;;-2.25;100.00
78373;BME280;67656;52.074;4.758;2023-03-01T02:33:02;103206.69;;;-2.33;100.00
78373;BME280;67656;52.074;4.758;2023-03-01T02:38:06;103206.38;;;-2.24;100.00
78373;BME280;67656;52.074;4.758;2023-03-01T02:43:08;103183.72;;;-2.15;100.00
78373;BME280;67656;52.074;4.758;2023-03-01T02:48:10;103191.19;;;-2.33;100.00
78373;BME280;67656;52.074;4.758;2023-03-01T02:53:23;103185.91;;;-2.21;100.00
78373;BME280;67656;52.074;4.758;2023-03-01T02:58:28;103171.06;;;-2.10;100.00
78373;BME280;67656;52.074;4.758;2023-03-01T03:03:29;103165.25;;;-2.06;100.00
78373;BME280;67656;52.074;4.758;2023-03-01T03:08:29;103174.66;;;-2.22;100.00
78373;BME280;67656;52.074;4.758;2023-03-01T03:13:29;103165.03;;;-2.38;100.00
78373;BME280;67656;52.074;4.758;2023-03-01T03:18:30;103169.28;;;-2.25;100.00
78373;BME280;67656;52.074;4.758;2023-03-01T03:23:30;103161.56;;;-2.38;100.00
78373;BME280;67656;52.074;4.758;2023-03-01T03:28:31;103167.97;;;-2.73;100.00
78373;BME280;67656;52.074;4.758;2023-03-01T03:33:32;103161.03;;;-2.74;100.00
78373;BME280;67656;52.074;4.758;2023-03-01T03:38:32;103160.81;;;-2.64;100.00
78373;BME280;67656;52.074;4.758;2023-03-01T03:43:35;103161.09;;;-2.59;100.00
78373;BME280;67656;52.074;4.758;2023-03-01T03:48:40;103147.78;;;-2.66;100.00
78373;BME280;67656;52.074;4.758;2023-03-01T03:53:41;103147.69;;;-2.81;100.00
78373;BME280;67656;52.074;4.758;2023-03-01T03:58:41;103146.31;;;-2.89;100.00
78373;BME280;67656;52.074;4.758;2023-03-01T04:03:42;103149.78;;;-3.02;100.00
78373;BME280;67656;52.074;4.758;2023-03-01T04:08:42;103146.09;;;-2.92;100.00
78373;BME280;67656;52.074;4.758;2023-03-01T04:13:42;103147.69;;;-3.08;100.00
78373;BME280;67656;52.074;4.758;2023-03-01T04:18:43;103146.88;;;-3.06;100.00
78373;BME280;67656;52.074;4.758;2023-03-01T04:23:43;103151.47;;;-3.16;100.00
78373;BME280;67656;52.074;4.758;2023-03-01T04:28:44;103148.09;;;-3.15;100.00
78373;BME280;67656;52.074;4.758;2023-03-01T04:33:49;103140.00;;;-3.46;100.00
78373;BME280;67656;52.074;4.758;2023-03-01T04:38:50;103135.91;;;-3.56;100.00
78373;BME280;67656;52.074;4.758;2023-03-01T04:43:51;103129.25;;;-3.91;100.00
78373;BME280;67656;52.074;4.758;2023-03-01T04:48:51;103130.50;;;-3.73;100.00
78373;BME280;67656;52.074;4.758;2023-03-01T04:53:51;103123.75;;;-3.71;100.00
78373;BME280;67656;52.074;4.758;2023-03-01T04:58:55;103111.09;;;-3.93;100.00
78373;BME280;67656;52.074;4.758;2023-03-01T05:03:55;103099.03;;;-4.06;100.00
78373;BME280;67656;52.074;4.758;2023-03-01T05:08:55;103110.53;;;-4.26;100.00
78373;BME280;67656;52.074;4.758;2023-03-01T05:13:56;103107.88;;;-4.27;100.00
78373;BME280;67656;52.074;4.758;2023-03-01T05:18:57;103099.28;;;-4.52;100.00
78373;BME280;67656;52.074;4.758;2023-03-01T05:23:57;103096.78;;;-4.64;100.00
78373;BME280;67656;52.074;4.758;2023-03-01T05:28:57;103083.44;;;-4.33;100.00
78373;BME280;67656;52.074;4.758;2023-03-01T05:33:58;103081.66;;;-4.34;100.00
78373;BME280;67656;52.074;4.758;2023-03-01T05:38:58;103061.09;;;-4.57;100.00
78373;BME280;67656;52.074;4.758;2023-03-01T05:43:58;103052.88;;;-4.77;100.00
78373;BME280;67656;52.074;4.758;2023-03-01T05:48:59;103053.25;;;-4.22;100.00
78373;BME280;67656;52.074;4.758;2023-03-01T05:53:59;103061.63;;;-3.74;100.00
78373;BME280;67656;52.074;4.758;2023-03-01T05:59:00;103062.53;;;-3.46;100.00
78373;BME280;67656;52.074;4.758;2023-03-01T06:04:02;103048.72;;;-3.74;100.00
78373;BME280;67656;52.074;4.758;2023-03-01T06:09:03;103051.13;;;-3.50;100.00
78373;BME280;67656;52.074;4.758;2023-03-01T06:14:05;103058.56;;;-3.68;100.00
78373;BME280;67656;52.074;4.758;2023-03-01T06:19:06;103053.38;;;-4.07;100.00
78373;BME280;67656;52.074;4.758;2023-03-01T06:24:06;103056.53;;;-4.24;100.00
78373;BME280;67656;52.074;4.758;2023-03-01T06:29:06;103067.03;;;-4.58;100.00
78373;BME280;67656;52.074;4.758;2023-03-01T06:34:07;103068.47;;;-4.87;100.00
78373;BME280;67656;52.074;4.758;2023-03-01T06:39:07;103071.16;;;-4.98;100.00
78373;BME280;67656;52.074;4.758;2023-03-01T06:44:07;103078.69;;;-5.01;100.00
78373;BME280;67656;52.074;4.758;2023-03-01T06:49:08;103072.16;;;-4.96;100.00
78373;BME280;67656;52.074;4.758;2023-03-01T06:54:08;103083.16;;;-4.86;100.00
78373;BME280;67656;52.074;4.758;2023-03-01T06:59:08;103066.19;;;-4.71;100.00
78373;BME280;67656;52.074;4.758;2023-03-01T07:04:10;103072.03;;;-4.11;100.00
78373;BME280;67656;52.074;4.758;2023-03-01T07:09:10;103072.94;;;-3.58;100.00
78373;BME280;67656;52.074;4.758;2023-03-01T07:14:10;103071.38;;;-3.02;100.00
78373;BME280;67656;52.074;4.758;2023-03-01T07:19:11;103067.56;;;-2.81;100.00
78373;BME280;67656;52.074;4.758;2023-03-01T07:24:11;103074.81;;;-2.75;100.00
78373;BME280;67656;52.074;4.758;2023-03-01T07:29:11;103077.22;;;-2.78;100.00
78373;BME280;67656;52.074;4.758;2023-03-01T07:34:12;103083.06;;;-2.81;100.00
78373;BME280;67656;52.074;4.758;2023-03-01T07:39:12;103080.31;;;-2.42;100.00
78373;BME280;67656;52.074;4.758;2023-03-01T07:44:12;103076.34;;;-1.02;100.00
78373;BME280;67656;52.074;4.758;2023-03-01T07:49:13;103075.81;;;-0.15;100.00
78373;BME280;67656;52.074;4.758;2023-03-01T07:54:13;103084.09;;;0.64;100.00
78373;BME280;67656;52.074;4.758;2023-03-01T07:59:13;103083.56;;;1.25;100.00
78373;BME280;67656;52.074;4.758;2023-03-01T08:04:14;103085.31;;;1.83;100.00
78373;BME280;67656;52.074;4.758;2023-03-01T08:09:14;103065.63;;;1.90;100.00
78373;BME280;67656;52.074;4.758;2023-03-01T08:14:14;103060.56;;;1.54;100.00
78373;BME280;67656;52.074;4.758;2023-03-01T08:19:15;103056.53;;;1.61;100.00
78373;BME280;67656;52.074;4.758;2023-03-01T08:24:15;103056.13;;;1.71;100.00
78373;BME280;67656;52.074;4.758;2023-03-01T08:29:15;103054.22;;;1.67;100.00
78373;BME280;67656;52.074;4.758;2023-03-01T08:34:16;103053.72;;;0.99;100.00
78373;BME280;67656;52.074;4.758;2023-03-01T08:39:18;103052.53;;;0.74;100.00
78373;BME280;67656;52.074;4.758;2023-03-01T08:44:19;103049.06;;;0.55;100.00
78373;BME280;67656;52.074;4.758;2023-03-01T08:49:20;103052.19;;;0.32;100.00
78373;BME280;67656;52.074;4.758;2023-03-01T08:54:21;103046.16;;;0.49;100.00
78373;BME280;67656;52.074;4.758;2023-03-01T08:59:21;103047.66;;;0.44;100.00
78373;BME280;67656;52.074;4.758;2023-03-01T09:04:22;103045.66;;;0.56;100.00
78373;BME280;67656;52.074;4.758;2023-03-01T09:09:22;103042.28;;;0.77;100.00
78373;BME280;67656;52.074;4.758;2023-03-01T09:14:23;103036.06;;;0.91;100.00
78373;BME280;67656;52.074;4.758;2023-03-01T09:19:24;103021.44;;;1.13;100.00
78373;BME280;67656;52.074;4.758;2023-03-01T09:24:25;103005.16;;;1.37;100.00
78373;BME280;67656;52.074;4.758;2023-03-01T09:29:25;103009.13;;;1.48;100.00
78373;BME280;67656;52.074;4.758;2023-03-01T09:34:25;103004.63;;;1.64;100.00
78373;BME280;67656;52.074;4.758;2023-03-01T09:39:26;103001.81;;;1.59;100.00
78373;BME280;67656;52.074;4.758;2023-03-01T09:44:36;103006.44;;;1.86;100.00
78373;BME280;67656;52.074;4.758;2023-03-01T09:49:41;103004.03;;;1.91;100.00
78373;BME280;67656;52.074;4.758;2023-03-01T09:54:45;102999.22;;;2.21;100.00
78373;BME280;67656;52.074;4.758;2023-03-01T10:00:18;103008.56;;;2.37;100.00
78373;BME280;67656;52.074;4.758;2023-03-01T10:05:44;102986.59;;;2.53;100.00
78373;BME280;67656;52.074;4.758;2023-03-01T10:10:48;102993.81;;;2.82;100.00
78373;BME280;67656;52.074;4.758;2023-03-01T10:15:53;102986.84;;;3.05;100.00
78373;BME280;67656;52.074;4.758;2023-03-01T10:21:18;102981.19;;;3.40;100.00
78373;BME280;67656;52.074;4.758;2023-03-01T10:26:40;102978.19;;;3.79;100.00
78373;BME280;67656;52.074;4.758;2023-03-01T10:31:46;102967.09;;;4.12;100.00
78373;BME280;67656;52.074;4.758;2023-03-01T10:36:51;102962.09;;;4.18;100.00
78373;BME280;67656;52.074;4.758;2023-03-01T10:47:01;102950.75;;;4.18;100.00
78373;BME280;67656;52.074;4.758;2023-03-01T10:52:17;102942.50;;;4.60;100.00
78373;BME280;67656;52.074;4.758;2023-03-01T10:57:30;102940.75;;;4.60;100.00
78373;BME280;67656;52.074;4.758;2023-03-01T11:02:31;102927.97;;;4.70;100.00
78373;BME280;67656;52.074;4.758;2023-03-01T11:07:46;102917.13;;;4.57;100.00
78373;BME280;67656;52.074;4.758;2023-03-01T11:12:47;102901.59;;;4.62;100.00
78373;BME280;67656;52.074;4.758;2023-03-01T11:17:48;102896.75;;;4.76;100.00
78373;BME280;67656;52.074;4.758;2023-03-01T11:22:57;102884.94;;;4.60;100.00
78373;BME280;67656;52.074;4.758;2023-03-01T11:28:01;102883.56;;;4.73;100.00
78373;BME280;67656;52.074;4.758;2023-03-01T11:33:11;102884.22;;;4.95;100.00
78373;BME280;67656;52.074;4.758;2023-03-01T11:38:22;102881.53;;;4.93;91.85
78373;BME280;67656;52.074;4.758;2023-03-01T11:43:56;102875.44;;;4.92;93.74
78373;BME280;67656;52.074;4.758;2023-03-01T11:59:59;102861.94;;;5.09;84.68
78373;BME280;67656;52.074;4.758;2023-03-01T12:10:29;102857.50;;;5.40;90.76
78373;BME280;67656;52.074;4.758;2023-03-01T12:21:51;102826.75;;;5.66;87.70
78373;BME280;67656;52.074;4.758;2023-03-01T12:27:12;102827.94;;;5.44;88.36
78373;BME280;67656;52.074;4.758;2023-03-01T12:37:25;102815.81;;;5.49;86.71
78373;BME280;67656;52.074;4.758;2023-03-01T12:48:34;102817.59;;;5.50;86.30
78373;BME280;67656;52.074;4.758;2023-03-01T12:53:45;102809.13;;;5.61;85.72
78373;BME280;67656;52.074;4.758;2023-03-01T13:04:15;102795.13;;;5.59;83.45
78373;BME280;67656;52.074;4.758;2023-03-01T13:09:30;102796.66;;;5.89;81.44
78373;BME280;67656;52.074;4.758;2023-03-01T13:14:35;102783.53;;;5.86;80.21
78373;BME280;67656;52.074;4.758;2023-03-01T13:19:35;102787.50;;;6.06;83.35
78373;BME280;67656;52.074;4.758;2023-03-01T13:24:39;102783.66;;;5.55;83.33
78373;BME280;67656;52.074;4.758;2023-03-01T13:39:59;102743.00;;;6.09;78.28
78373;BME280;67656;52.074;4.758;2023-03-01T13:45:00;102734.84;;;5.97;82.70
78373;BME280;67656;52.074;4.758;2023-03-01T13:50:03;102728.06;;;6.05;85.08
78373;BME280;67656;52.074;4.758;2023-03-01T14:00:43;102704.66;;;6.14;80.32
78373;BME280;67656;52.074;4.758;2023-03-01T14:16:58;102698.41;;;6.54;78.78
78373;BME280;67656;52.074;4.758;2023-03-01T14:27:11;102671.72;;;6.27;75.29
78373;BME280;67656;52.074;4.758;2023-03-01T14:32:19;102661.94;;;6.19;78.14
78373;BME280;67656;52.074;4.758;2023-03-01T14:37:22;102645.63;;;6.35;77.62
78373;BME280;67656;52.074;4.758;2023-03-01T14:42:25;102648.84;;;6.20;78.63
78373;BME280;67656;52.074;4.758;2023-03-01T14:47:32;102648.19;;;6.32;83.12
78373;BME280;67656;52.074;4.758;2023-03-01T14:52:42;102643.13;;;6.41;81.20
78373;BME280;67656;52.074;4.758;2023-03-01T14:58:22;102641.47;;;6.47;78.33
78373;BME280;67656;52.074;4.758;2023-03-01T15:03:41;102639.75;;;6.49;72.75
78373;BME280;67656;52.074;4.758;2023-03-01T15:08:47;102625.38;;;6.28;76.85
78373;BME280;67656;52.074;4.758;2023-03-01T15:13:48;102625.72;;;6.47;74.04
78373;BME280;67656;52.074;4.758;2023-03-01T15:18:52;102616.97;;;6.46;78.07
78373;BME280;67656;52.074;4.758;2023-03-01T15:24:01;102605.06;;;6.65;77.50
78373;BME280;67656;52.074;4.758;2023-03-01T15:29:27;102608.00;;;6.85;70.26
78373;BME280;67656;52.074;4.758;2023-03-01T15:34:40;102598.44;;;6.89;72.59
78373;BME280;67656;52.074;4.758;2023-03-01T15:39:43;102604.31;;;6.72;74.04
78373;BME280;67656;52.074;4.758;2023-03-01T15:50:18;102615.75;;;6.78;89.18
78373;BME280;67656;52.074;4.758;2023-03-01T15:55:24;102607.06;;;6.82;76.72
78373;BME280;67656;52.074;4.758;2023-03-01T16:00:29;102603.56;;;6.29;80.16
78373;BME280;67656;52.074;4.758;2023-03-01T16:05:34;102592.84;;;6.17;83.09
78373;BME280;67656;52.074;4.758;2023-03-01T16:10:34;102592.16;;;5.82;95.09
78373;BME280;67656;52.074;4.758;2023-03-01T16:15:35;102593.63;;;5.69;100.00
78373;BME280;67656;52.074;4.758;2023-03-01T16:20:36;102595.78;;;5.46;100.00
78373;BME280;67656;52.074;4.758;2023-03-01T16:25:36;102602.47;;;5.32;100.00
78373;BME280;67656;52.074;4.758;2023-03-01T16:30:38;102593.34;;;5.14;100.00
78373;BME280;67656;52.074;4.758;2023-03-01T16:35:40;102589.50;;;5.00;100.00
78373;BME280;67656;52.074;4.758;2023-03-01T16:40:47;102591.03;;;4.90;100.00
78373;BME280;67656;52.074;4.758;2023-03-01T16:45:47;102584.41;;;4.68;100.00
78373;BME280;67656;52.074;4.758;2023-03-01T16:50:59;102580.41;;;4.47;100.00
78373;BME280;67656;52.074;4.758;2023-03-01T16:55:59;102579.13;;;4.31;100.00
78373;BME280;67656;52.074;4.758;2023-03-01T17:01:05;102571.59;;;4.10;100.00
78373;BME280;67656;52.074;4.758;2023-03-01T17:06:12;102579.88;;;3.93;100.00
78373;BME280;67656;52.074;4.758;2023-03-01T17:11:15;102580.25;;;3.75;100.00
78373;BME280;67656;52.074;4.758;2023-03-01T17:16:18;102573.56;;;3.54;100.00
78373;BME280;67656;52.074;4.758;2023-03-01T17:21:18;102587.84;;;3.37;100.00
78373;BME280;67656;52.074;4.758;2023-03-01T17:26:18;102586.50;;;3.21;100.00
78373;BME280;67656;52.074;4.758;2023-03-01T17:31:19;102585.13;;;3.05;100.00
78373;BME280;67656;52.074;4.758;2023-03-01T17:36:20;102586.41;;;2.90;100.00
78373;BME280;67656;52.074;4.758;2023-03-01T17:41:20;102594.69;;;2.77;100.00
78373;BME280;67656;52.074;4.758;2023-03-01T17:46:20;102587.88;;;2.55;100.00
78373;BME280;67656;52.074;4.758;2023-03-01T17:51:21;102590.06;;;2.42;100.00
78373;BME280;67656;52.074;4.758;2023-03-01T17:56:21;102605.19;;;2.27;100.00
78373;BME280;67656;52.074;4.758;2023-03-01T18:01:21;102614.09;;;2.09;100.00
78373;BME280;67656;52.074;4.758;2023-03-01T18:06:23;102621.84;;;1.83;100.00
78373;BME280;67656;52.074;4.758;2023-03-01T18:11:24;102621.13;;;1.63;100.00
78373;BME280;67656;52.074;4.758;2023-03-01T18:16:25;102618.06;;;1.51;100.00
78373;BME280;67656;52.074;4.758;2023-03-01T18:21:26;102638.84;;;1.28;100.00
78373;BME280;67656;52.074;4.758;2023-03-01T18:26:27;102640.91;;;1.14;100.00
78373;BME280;67656;52.074;4.758;2023-03-01T18:31:27;102637.84;;;1.25;100.00
78373;BME280;67656;52.074;4.758;2023-03-01T18:36:32;102631.97;;;1.29;100.00
78373;BME280;67656;52.074;4.758;2023-03-01T18:41:34;102640.00;;;1.14;100.00
78373;BME280;67656;52.074;4.758;2023-03-01T18:46:36;102629.69;;;1.15;100.00
78373;BME280;67656;52.074;4.758;2023-03-01T18:51:36;102629.69;;;1.15;100.00
78373;BME280;67656;52.074;4.758;2023-03-01T18:56:37;102636.41;;;1.10;100.00
78373;BME280;67656;52.074;4.758;2023-03-01T19:01:37;102639.97;;;1.12;100.00
78373;BME280;67656;52.074;4.758;2023-03-01T19:06:38;102632.84;;;1.08;100.00
78373;BME280;67656;52.074;4.758;2023-03-01T19:11:38;102628.56;;;1.09;100.00
78373;BME280;67656;52.074;4.758;2023-03-01T19:16:39;102622.59;;;0.90;100.00
78373;BME280;67656;52.074;4.758;2023-03-01T19:21:39;102629.06;;;0.79;100.00
78373;BME280;67656;52.074;4.758;2023-03-01T19:26:39;102641.69;;;0.69;100.00
78373;BME280;67656;52.074;4.758;2023-03-01T19:31:39;102637.50;;;0.73;100.00
78373;BME280;67656;52.074;4.758;2023-03-01T19:36:41;102631.88;;;0.62;100.00
78373;BME280;67656;52.074;4.758;2023-03-01T19:41:42;102631.13;;;0.65;100.00
78373;BME280;67656;52.074;4.758;2023-03-01T19:46:43;102630.16;;;0.63;100.00
78373;BME280;67656;52.074;4.758;2023-03-01T19:51:43;102616.47;;;0.45;100.00
78373;BME280;67656;52.074;4.758;2023-03-01T19:56:47;102621.31;;;0.38;100.00
78373;BME280;67656;52.074;4.758;2023-03-01T20:01:49;102621.19;;;0.35;100.00
78373;BME280;67656;52.074;4.758;2023-03-01T20:06:49;102617.25;;;0.23;100.00
78373;BME280;67656;52.074;4.758;2023-03-01T20:11:49;102612.88;;;0.22;100.00
78373;BME280;67656;52.074;4.758;2023-03-01T20:16:50;102611.81;;;0.17;100.00
78373;BME280;67656;52.074;4.758;2023-03-01T20:21:51;102614.94;;;0.10;100.00
78373;BME280;67656;52.074;4.758;2023-03-01T20:26:51;102606.09;;;0.26;100.00
78373;BME280;67656;52.074;4.758;2023-03-01T20:31:52;102606.69;;;0.40;100.00
78373;BME280;67656;52.074;4.758;2023-03-01T20:36:52;102611.50;;;0.30;100.00
78373;BME280;67656;52.074;4.758;2023-03-01T20:41:52;102612.69;;;0.18;100.00
78373;BME280;67656;52.074;4.758;2023-03-01T20:46:52;102615.69;;;0.07;100.00
78373;BME280;67656;52.074;4.758;2023-03-01T20:51:53;102621.03;;;0.10;100.00
78373;BME280;67656;52.074;4.758;2023-03-01T20:56:53;102629.78;;;0.12;100.00
78373;BME280;67656;52.074;4.758;2023-03-01T21:01:53;102622.19;;;0.17;100.00
78373;BME280;67656;52.074;4.758;2023-03-01T21:06:54;102634.06;;;0.12;100.00
78373;BME280;67656;52.074;4.758;2023-03-01T21:11:54;102634.09;;;-0.08;100.00
78373;BME280;67656;52.074;4.758;2023-03-01T21:16:54;102649.47;;;-0.31;100.00
78373;BME280;67656;52.074;4.758;2023-03-01T21:21:55;102652.25;;;-0.45;100.00
78373;BME280;67656;52.074;4.758;2023-03-01T21:26:55;102650.22;;;-0.71;100.00
78373;BME280;67656;52.074;4.758;2023-03-01T21:31:56;102656.22;;;-0.90;100.00
78373;BME280;67656;52.074;4.758;2023-03-01T21:36:57;102663.53;;;-0.99;100.00
78373;BME280;67656;52.074;4.758;2023-03-01T21:41:59;102665.78;;;-0.89;100.00
78373;BME280;67656;52.074;4.758;2023-03-01T21:46:59;102669.63;;;-0.99;100.00
78373;BME280;67656;52.074;4.758;2023-03-01T21:52:00;102663.78;;;-0.95;100.00
78373;BME280;67656;52.074;4.758;2023-03-01T21:57:00;102671.41;;;-0.98;100.00
78373;BME280;67656;52.074;4.758;2023-03-01T22:02:00;102672.22;;;-0.99;100.00
78373;BME280;67656;52.074;4.758;2023-03-01T22:07:01;102671.25;;;-0.83;100.00
78373;BME280;67656;52.074;4.758;2023-03-01T22:12:01;102663.47;;;-0.65;100.00
78373;BME280;67656;52.074;4.758;2023-03-01T22:17:02;102665.56;;;-0.57;100.00
78373;BME280;67656;52.074;4.758;2023-03-01T22:22:02;102665.22;;;-0.45;100.00
78373;BME280;67656;52.074;4.758;2023-03-01T22:27:03;102651.88;;;-0.53;100.00
78373;BME280;67656;52.074;4.758;2023-03-01T22:32:03;102654.63;;;-0.50;100.00
78373;BME280;67656;52.074;4.758;2023-03-01T22:37:04;102650.09;;;-0.54;100.00
78373;BME280;67656;52.074;4.758;2023-03-01T22:42:04;102648.25;;;-0.39;100.00
78373;BME280;67656;52.074;4.758;2023-03-01T22:47:05;102655.25;;;-0.36;100.00
78373;BME280;67656;52.074;4.758;2023-03-01T22:52:05;102643.28;;;-0.52;100.00
78373;BME280;67656;52.074;4.758;2023-03-01T22:57:05;102642.69;;;-0.47;100.00
78373;BME280;67656;52.074;4.758;2023-03-01T23:02:06;102644.50;;;-0.64;100.00
78373;BME280;67656;52.074;4.758;2023-03-01T23:07:06;102640.50;;;-0.75;100.00
78373;BME280;67656;52.074;4.758;2023-03-01T23:12:07;102637.38;;;-0.68;100.00
78373;BME280;67656;52.074;4.758;2023-03-01T23:17:07;102636.19;;;-0.56;100.00
78373;BME280;67656;52.074;4.758;2023-03-01T23:22:08;102628.78;;;-0.67;100.00
78373;BME280;67656;52.074;4.758;2023-03-01T23:27:08;102631.00;;;-0.74;100.00
78373;BME280;67656;52.074;4.758;2023-03-01T23:32:09;102614.59;;;-0.75;100.00
78373;BME280;67656;52.074;4.758;2023-03-01T23:37:10;102621.56;;;-0.74;100.00
78373;BME280;67656;52.074;4.758;2023-03-01T23:42:10;102623.09;;;-0.59;100.00
78373;BME280;67656;52.074;4.758;2023-03-01T23:47:10;102625.81;;;-0.56;100.00
78373;BME280;67656;52.074;4.758;2023-03-01T23:52:12;102627.09;;;-0.66;100.00
78373;BME280;67656;52.074;4.758;2023-03-01T23:57:12;102634.28;;;-0.60;100.00
